createdAt,value
2019-04-10T00:00:48.104Z,99038.00
2019-04-10T00:02:53.581Z,99041.00
2019-04-10T00:04:59.191Z,99042.00
2019-04-10T00:07:13.815Z,99040.00
2019-04-10T00:09:12.881Z,99048.00
2019-04-10T00:11:18.604Z,99037.00
2019-04-10T00:13:24.693Z,99051.00
2019-04-10T00:15:30.644Z,99047.00
2019-04-10T00:17:35.624Z,99039.00
2019-04-10T00:19:40.713Z,99043.00
2019-04-10T00:21:45.973Z,99039.00
2019-04-10T00:23:51.514Z,99047.00
2019-04-10T00:25:57.285Z,99050.00
2019-04-10T00:28:03.259Z,99057.00
2019-04-10T00:30:09.232Z,99043.00
2019-04-10T00:32:14.258Z,99052.00
2019-04-10T00:34:21.136Z,99058.00
2019-04-10T00:36:26.891Z,99049.00
2019-04-10T00:38:32.003Z,99055.00
2019-04-10T00:40:36.898Z,99054.00
2019-04-10T00:42:43.272Z,99042.00
2019-04-10T00:44:48.611Z,99060.00
2019-04-10T00:46:54.747Z,99052.00
2019-04-10T00:49:00.630Z,99056.00
2019-04-10T00:51:06.691Z,99063.00
2019-04-10T00:53:12.841Z,99053.00
2019-04-10T00:55:18.057Z,99055.00
2019-04-10T00:57:23.688Z,99054.00
2019-04-10T00:59:30.298Z,99048.00
2019-04-10T01:01:38.760Z,99049.00
2019-04-10T01:03:48.574Z,99060.00
2019-04-10T03:36:03.298Z,99067.00
2019-04-10T03:38:09.779Z,99068.00
2019-04-10T03:40:15.450Z,99074.00
2019-04-10T03:42:21.256Z,99077.00
2019-04-10T03:44:27.095Z,99068.00
2019-04-10T03:46:33.240Z,99075.00
2019-04-10T03:48:39.000Z,99068.00
2019-04-10T03:50:45.423Z,99072.00
2019-04-10T03:52:51.692Z,99083.00
2019-04-10T03:54:58.609Z,99074.00
2019-04-10T03:57:04.585Z,99078.00
2019-04-10T03:59:11.683Z,99079.00
2019-04-10T04:01:17.220Z,99080.00
2019-04-10T04:03:22.644Z,99083.00
2019-04-10T04:05:28.835Z,99081.00
2019-04-10T04:07:34.761Z,99080.00
2019-04-10T04:09:39.939Z,99085.00
2019-04-10T04:11:46.089Z,99077.00
2019-04-10T04:13:52.134Z,99086.00
2019-04-10T04:15:58.134Z,99089.00
2019-04-10T04:18:04.521Z,99090.00
2019-04-10T04:20:10.798Z,99091.00
2019-04-10T04:22:16.696Z,99089.00
2019-04-10T04:24:25.501Z,99093.00
2019-04-10T04:26:31.817Z,99098.00
2019-04-10T04:28:36.979Z,99098.00
2019-04-10T04:30:42.392Z,99103.00
2019-04-10T04:32:48.383Z,99086.00
2019-04-10T04:34:54.253Z,99108.00
2019-04-10T04:37:00.371Z,99091.00
2019-04-10T04:39:18.094Z,99092.00
2019-04-10T04:41:15.373Z,99105.00
2019-04-10T04:43:21.677Z,99104.00
2019-04-10T04:45:27.848Z,99108.00
2019-04-10T04:47:33.551Z,99113.00
2019-04-10T04:49:39.811Z,99112.00
2019-04-10T04:51:45.707Z,99106.00
2019-04-10T04:53:51.208Z,99108.00
2019-04-10T04:55:57.569Z,99110.00
2019-04-10T04:58:04.030Z,99121.00
2019-04-10T05:00:09.594Z,99123.00
2019-04-10T05:02:14.904Z,99118.00
2019-04-10T05:04:20.610Z,99132.00
2019-04-10T05:06:26.643Z,99127.00
2019-04-10T05:08:32.573Z,99131.00
2019-04-10T05:10:37.864Z,99123.00
2019-04-10T05:12:43.630Z,99139.00
2019-04-10T05:14:49.700Z,99125.00
2019-04-10T05:16:55.449Z,99143.00
2019-04-10T05:19:01.723Z,99147.00
2019-04-10T05:21:06.813Z,99147.00
2019-04-10T05:23:11.841Z,99145.00
2019-04-10T05:25:17.083Z,99155.00
2019-04-10T05:27:24.672Z,99161.00
2019-04-10T05:29:31.105Z,99157.00
2019-04-10T05:31:37.044Z,99160.00
2019-04-10T05:33:43.154Z,99162.00
2019-04-10T05:35:48.876Z,99164.00
2019-04-10T05:37:54.167Z,99168.00
2019-04-10T05:39:59.421Z,99159.00
2019-04-10T05:42:04.864Z,99169.00
2019-04-10T05:44:09.908Z,99171.00
2019-04-10T05:46:16.452Z,99169.00
2019-04-10T05:48:23.583Z,99174.00
2019-04-10T05:50:29.912Z,99165.00
2019-04-10T05:52:37.386Z,99174.00
2019-04-10T05:54:43.786Z,99178.00
2019-04-10T05:56:49.025Z,99182.00
2019-04-10T05:58:54.641Z,99175.00
2019-04-10T06:01:01.783Z,99177.00
2019-04-10T06:03:06.857Z,99172.00
2019-04-10T06:05:12.076Z,99162.00
2019-04-10T06:07:17.455Z,99175.00
2019-04-10T06:09:23.308Z,99169.00
2019-04-10T06:11:29.196Z,99175.00
2019-04-10T06:13:35.278Z,99184.00
2019-04-10T06:15:41.284Z,99171.00
2019-04-10T06:17:46.951Z,99176.00
2019-04-10T06:19:53.116Z,99179.00
2019-04-10T06:21:58.613Z,99184.00
2019-04-10T06:24:03.906Z,99176.00
2019-04-10T06:26:10.201Z,99183.00
2019-04-10T06:28:16.964Z,99177.00
2019-04-10T06:30:22.405Z,99182.00
2019-04-10T06:32:27.638Z,99183.00
2019-04-10T06:34:34.179Z,99180.00
2019-04-10T06:36:39.701Z,99187.00
2019-04-10T06:38:45.777Z,99195.00
2019-04-10T06:40:50.786Z,99195.00
2019-04-10T06:42:57.617Z,99191.00
2019-04-10T06:45:05.493Z,99195.00
2019-04-10T06:47:09.931Z,99195.00
2019-04-10T06:49:16.468Z,99191.00
2019-04-10T06:51:21.827Z,99186.00
2019-04-10T06:53:27.054Z,99192.00
2019-04-10T06:55:32.314Z,99190.00
2019-04-10T06:57:46.911Z,99195.00
2019-04-10T06:59:44.510Z,99191.00
2019-04-10T07:01:53.364Z,99198.00
2019-04-10T07:04:02.749Z,99199.00
2019-04-10T07:06:13.416Z,99203.00
2019-04-10T07:08:16.433Z,99200.00
2019-04-10T07:10:26.112Z,99178.00
2019-04-10T07:12:29.773Z,99191.00
2019-04-10T07:14:35.106Z,99201.00
2019-04-10T07:16:40.224Z,99201.00
2019-04-10T07:18:49.029Z,99200.00
2019-04-10T07:20:56.342Z,99200.00
2019-04-10T07:25:02.944Z,99206.00
2019-04-10T07:27:09.769Z,99203.00
2019-04-10T07:29:17.946Z,99210.00
2019-04-10T07:31:23.480Z,99192.00
2019-04-10T07:33:29.075Z,99212.00
2019-04-10T07:35:35.764Z,99204.00
2019-04-10T07:37:42.518Z,99211.00
2019-04-10T07:39:48.851Z,99207.00
2019-04-10T07:41:54.042Z,99211.00
2019-04-10T07:43:59.188Z,99210.00
2019-04-10T07:46:04.955Z,99219.00
2019-04-10T07:48:10.765Z,99222.00
2019-04-10T07:50:16.488Z,99215.00
2019-04-10T07:52:23.036Z,99220.00
2019-04-10T07:54:29.052Z,99214.00
2019-04-10T07:56:35.359Z,99213.00
2019-04-10T07:58:40.365Z,99221.00
2019-04-10T08:00:46.906Z,99215.00
2019-04-10T08:02:53.203Z,99215.00
2019-04-10T08:04:58.342Z,99214.00
2019-04-10T08:07:03.444Z,99217.00
2019-04-10T08:09:10.450Z,99219.00
2019-04-10T08:11:15.598Z,99226.00
2019-04-10T08:13:20.769Z,99219.00
2019-04-10T08:15:27.266Z,99216.00
2019-04-10T08:17:32.910Z,99218.00
2019-04-10T08:19:39.089Z,99221.00
2019-04-10T08:21:44.510Z,99220.00
2019-04-10T08:23:51.464Z,99226.00
2019-04-10T08:25:56.642Z,99232.00
2019-04-10T08:28:02.762Z,99215.00
2019-04-10T08:30:10.931Z,99220.00
2019-04-10T08:32:16.079Z,99222.00
2019-04-10T08:34:21.693Z,99214.00
2019-04-10T08:36:27.616Z,99228.00
2019-04-10T08:38:32.715Z,99218.00
2019-04-10T08:40:38.321Z,99222.00
2019-04-10T08:42:46.019Z,99230.00
2019-04-10T08:44:50.631Z,99222.00
2019-04-10T08:46:55.787Z,99229.00
2019-04-10T08:49:01.246Z,99235.00
2019-04-10T08:51:06.726Z,99233.00
2019-04-10T08:53:11.838Z,99231.00
2019-04-10T08:55:17.762Z,99233.00
2019-04-10T08:57:23.016Z,99227.00
2019-04-10T08:59:29.921Z,99228.00
2019-04-10T09:01:36.080Z,99230.00
2019-04-10T09:03:41.333Z,99236.00
2019-04-10T09:05:47.083Z,99233.00
2019-04-10T09:07:52.787Z,99237.00
2019-04-10T09:09:58.331Z,99229.00
2019-04-10T09:12:03.496Z,99233.00
2019-04-10T09:14:08.761Z,99231.00
2019-04-10T09:16:14.133Z,99237.00
2019-04-10T09:18:19.671Z,99243.00
2019-04-10T09:20:24.860Z,99250.00
2019-04-10T09:22:47.974Z,99231.00
2019-04-10T09:24:38.684Z,99236.00
2019-04-10T09:26:44.587Z,99232.00
2019-04-10T09:28:50.781Z,99229.00
2019-04-10T09:30:55.912Z,99237.00
2019-04-10T09:33:05.555Z,99227.00
2019-04-10T09:35:09.178Z,99237.00
2019-04-10T09:37:15.641Z,99238.00
2019-04-10T09:39:20.794Z,99238.00
2019-04-10T09:41:26.248Z,99225.00
2019-04-10T09:43:31.753Z,99224.00
2019-04-10T09:45:37.247Z,99225.00
2019-04-10T09:47:43.760Z,99225.00
2019-04-10T09:49:49.351Z,99232.00
2019-04-10T09:51:55.086Z,99219.00
2019-04-10T09:54:01.286Z,99219.00
2019-04-10T09:56:07.357Z,99228.00
2019-04-10T09:58:13.258Z,99215.00
2019-04-10T10:00:21.135Z,99225.00
2019-04-10T10:02:27.473Z,99224.00
2019-04-10T10:04:33.328Z,99235.00
2019-04-10T10:06:39.648Z,99237.00
2019-04-10T10:08:45.318Z,99230.00
2019-04-10T10:10:50.397Z,99233.00
2019-04-10T10:12:56.915Z,99233.00
2019-04-10T10:15:02.757Z,99230.00
2019-04-10T10:17:08.611Z,99229.00
2019-04-10T10:19:14.196Z,99223.00
2019-04-10T10:21:20.635Z,99237.00
2019-04-10T10:23:26.076Z,99231.00
2019-04-10T10:25:31.271Z,99226.00
2019-04-10T10:27:36.518Z,99224.00
2019-04-10T10:29:41.919Z,99233.00
2019-04-10T10:31:49.730Z,99219.00
2019-04-10T10:33:55.134Z,99229.00
2019-04-10T10:36:01.159Z,99225.00
2019-04-10T10:38:07.598Z,99231.00
2019-04-10T10:40:15.129Z,99223.00
2019-04-10T10:42:21.248Z,99225.00
2019-04-10T10:44:27.015Z,99229.00
2019-04-10T10:46:32.034Z,99225.00
2019-04-10T10:48:38.022Z,99231.00
2019-04-10T10:50:45.675Z,99235.00
2019-04-10T10:52:52.135Z,99236.00
2019-04-10T10:54:58.978Z,99218.00
2019-04-10T10:57:04.471Z,99231.00
2019-04-10T10:59:09.694Z,99239.00
2019-04-10T11:01:15.772Z,99241.00
2019-04-10T11:03:20.856Z,99241.00
2019-04-10T11:05:25.971Z,99240.00
2019-04-10T11:07:31.293Z,99225.00
2019-04-10T11:09:37.050Z,99230.00
2019-04-10T11:11:42.228Z,99233.00
2019-04-10T11:13:48.514Z,99223.00
2019-04-10T11:15:53.986Z,99228.00
2019-04-10T11:18:00.237Z,99236.00
2019-04-10T11:20:08.075Z,99232.00
2019-04-10T11:22:14.860Z,99229.00
2019-04-10T11:24:20.647Z,99237.00
2019-04-10T11:26:27.511Z,99241.00
2019-04-10T11:28:33.923Z,99236.00
2019-04-10T11:30:41.047Z,99221.00
2019-04-10T11:32:46.559Z,99228.00
2019-04-10T11:34:52.860Z,99237.00
2019-04-10T11:37:16.904Z,99230.00
2019-04-10T11:39:16.827Z,99250.00
2019-04-10T11:41:18.070Z,99243.00
2019-04-10T11:43:24.882Z,99247.00
2019-04-10T11:45:40.694Z,99251.00
2019-04-10T11:47:38.803Z,99250.00
2019-04-10T11:49:45.158Z,99250.00
2019-04-10T11:51:52.977Z,99246.00
2019-04-10T11:53:59.222Z,99255.00
2019-04-10T11:56:05.687Z,99261.00
2019-04-10T11:58:15.570Z,99259.00
2019-04-10T12:00:26.771Z,99251.00
2019-04-10T12:02:33.681Z,99258.00
2019-04-10T12:04:47.957Z,99259.00
2019-04-10T12:06:49.191Z,99251.00
2019-04-10T12:13:05.966Z,99257.00
2019-04-10T12:15:12.314Z,99254.00
2019-04-10T12:17:17.999Z,99261.00
2019-04-10T12:19:25.032Z,99263.00
2019-04-10T12:21:31.620Z,99264.00
2019-04-10T12:23:36.927Z,99278.00
2019-04-10T12:25:42.993Z,99276.00
2019-04-10T12:27:49.425Z,99280.00
2019-04-10T12:29:55.103Z,99261.00
2019-04-10T12:32:00.830Z,99258.00
2019-04-10T12:34:06.727Z,99272.00
2019-04-10T12:36:12.240Z,99276.00
2019-04-10T12:38:17.372Z,99287.00
2019-04-10T12:40:23.852Z,99273.00
2019-04-10T12:42:30.297Z,99271.00
2019-04-10T12:44:36.005Z,99279.00
2019-04-10T12:46:41.597Z,99277.00
2019-04-10T12:48:47.223Z,99277.00
2019-04-10T12:50:53.067Z,99273.00
2019-04-10T12:52:58.865Z,99279.00
2019-04-10T12:55:04.411Z,99289.00
2019-04-10T12:57:10.600Z,99278.00
2019-04-10T12:59:16.042Z,99273.00
2019-04-10T13:01:22.652Z,99278.00
2019-04-10T13:03:27.804Z,99276.00
2019-04-10T13:05:34.274Z,99277.00
2019-04-10T13:07:40.070Z,99274.00
2019-04-10T13:09:46.350Z,99278.00
2019-04-10T13:11:51.374Z,99272.00
2019-04-10T13:13:56.423Z,99282.00
2019-04-10T13:16:01.895Z,99274.00
2019-04-10T13:18:07.953Z,99278.00
2019-04-10T13:20:15.647Z,99271.00
2019-04-10T13:22:20.786Z,99272.00
2019-04-10T13:24:26.313Z,99278.00
2019-04-10T13:26:32.298Z,99271.00
2019-04-10T13:28:37.721Z,99266.00
2019-04-10T13:30:50.268Z,99279.00
2019-04-10T13:32:50.123Z,99277.00
2019-04-10T13:34:55.923Z,99280.00
2019-04-10T13:37:04.395Z,99275.00
2019-04-10T13:39:13.293Z,99266.00
2019-04-10T13:41:18.591Z,99277.00
2019-04-10T13:43:23.687Z,99278.00
2019-04-10T13:45:29.055Z,99281.00
2019-04-10T13:47:34.428Z,99285.00
2019-04-10T13:49:40.236Z,99286.00
2019-04-10T13:51:46.407Z,99280.00
2019-04-10T13:53:52.360Z,99275.00
2019-04-10T13:55:57.490Z,99275.00
2019-04-10T13:58:03.344Z,99277.00
2019-04-10T14:00:11.424Z,99279.00
2019-04-10T14:02:25.404Z,99279.00
2019-04-10T14:04:31.302Z,99281.00
2019-04-10T14:06:36.361Z,99275.00
2019-04-10T14:08:59.884Z,99275.00
2019-04-10T14:10:48.912Z,99269.00
2019-04-10T14:12:56.389Z,99272.00
2019-04-10T14:15:01.694Z,99281.00
2019-04-10T14:17:07.403Z,99281.00
2019-04-10T14:19:15.053Z,99269.00
2019-04-10T14:21:20.765Z,99271.00
2019-04-10T14:23:31.206Z,99275.00
2019-04-10T14:25:53.987Z,99279.00
2019-04-10T14:28:00.595Z,99285.00
2019-04-10T14:30:11.212Z,99273.00
2019-04-10T14:32:36.218Z,99282.00
2019-04-10T14:34:41.354Z,99290.00
2019-04-10T14:36:46.783Z,99300.00
2019-04-10T14:38:52.648Z,99288.00
2019-04-10T14:40:57.933Z,99307.00
2019-04-10T14:43:03.492Z,99309.00
2019-04-10T14:45:10.831Z,99318.00
2019-04-10T14:47:17.146Z,99307.00
2019-04-10T14:49:23.433Z,99314.00
2019-04-10T14:51:28.793Z,99320.00
2019-04-10T14:53:35.229Z,99317.00
2019-04-10T14:55:41.750Z,99311.00
2019-04-10T14:57:47.396Z,99308.00
2019-04-10T14:59:53.130Z,99316.00
2019-04-10T15:01:59.780Z,99324.00
2019-04-10T15:04:05.376Z,99321.00
2019-04-10T15:06:11.464Z,99328.00
2019-04-10T15:08:17.586Z,99322.00
2019-04-10T15:10:23.009Z,99319.00
2019-04-10T15:12:28.181Z,99326.00
2019-04-10T15:14:33.998Z,99325.00
2019-04-10T15:16:39.346Z,99327.00
2019-04-10T15:18:45.816Z,99334.00
2019-04-10T15:20:51.157Z,99327.00
2019-04-10T15:22:56.605Z,99327.00
2019-04-10T15:25:02.009Z,99329.00
2019-04-10T15:27:07.469Z,99333.00
2019-04-10T15:29:12.952Z,99342.00
2019-04-10T15:31:19.417Z,99341.00
2019-04-10T15:33:24.729Z,99352.00
2019-04-10T15:35:30.730Z,99347.00
2019-04-10T15:37:35.855Z,99346.00
2019-04-10T15:39:42.922Z,99346.00
2019-04-10T15:41:47.828Z,99344.00
2019-04-10T15:43:53.938Z,99349.00
2019-04-10T15:46:00.186Z,99346.00
2019-04-10T15:48:05.665Z,99351.00
2019-04-10T15:50:13.711Z,99354.00
2019-04-10T15:52:19.903Z,99349.00
2019-04-10T15:54:25.641Z,99350.00
2019-04-10T15:56:31.071Z,99354.00
2019-04-10T15:58:36.416Z,99365.00
2019-04-10T16:00:43.236Z,99358.00
2019-04-10T16:02:49.082Z,99353.00
2019-04-10T16:04:55.275Z,99369.00
2019-04-10T16:07:01.991Z,99377.00
2019-04-10T16:09:09.254Z,99366.00
2019-04-10T16:11:50.061Z,99359.00
2019-04-10T16:13:56.953Z,99369.00
2019-04-10T16:16:21.505Z,99378.00
2019-04-10T16:18:28.329Z,99370.00
2019-04-10T16:20:34.581Z,99366.00
2019-04-10T16:22:43.002Z,99372.00
2019-04-10T16:24:48.964Z,99373.00
2019-04-10T16:26:55.748Z,99376.00
2019-04-10T16:29:02.029Z,99372.00
2019-04-10T16:31:07.596Z,99378.00
2019-04-10T16:33:14.653Z,99370.00
2019-04-10T16:35:20.888Z,99373.00
2019-04-10T16:37:26.471Z,99389.00
2019-04-10T16:39:32.104Z,99390.00
2019-04-10T16:41:37.925Z,99386.00
2019-04-10T16:43:43.094Z,99399.00
2019-04-10T16:45:48.988Z,99392.00
2019-04-10T16:47:54.559Z,99401.00
2019-04-10T16:50:01.418Z,99396.00
2019-04-10T16:52:07.346Z,99395.00
2019-04-10T16:54:12.804Z,99407.00
2019-04-10T16:56:18.663Z,99411.00
2019-04-10T16:58:23.670Z,99407.00
2019-04-10T17:00:29.179Z,99402.00
2019-04-10T17:02:34.373Z,99400.00
2019-04-10T17:04:40.135Z,99409.00
2019-04-10T17:06:46.116Z,99408.00
2019-04-10T17:08:52.274Z,99407.00
2019-04-10T17:10:58.800Z,99418.00
2019-04-10T17:13:07.267Z,99406.00
2019-04-10T17:15:13.314Z,99409.00
2019-04-10T17:17:18.560Z,99414.00
2019-04-10T17:19:23.789Z,99406.00
2019-04-10T17:21:30.726Z,99398.00
2019-04-10T17:23:36.748Z,99418.00
2019-04-10T17:25:44.343Z,99412.00
2019-04-10T17:27:50.047Z,99419.00
2019-04-10T17:29:56.932Z,99411.00
2019-04-10T17:32:04.644Z,99420.00
2019-04-10T17:34:10.356Z,99416.00
2019-04-10T17:36:15.339Z,99422.00
2019-04-10T17:38:20.780Z,99426.00
2019-04-10T17:40:33.561Z,99416.00
2019-04-10T17:42:33.005Z,99433.00
2019-04-10T17:44:38.514Z,99428.00
2019-04-10T17:46:43.946Z,99436.00
2019-04-10T17:48:49.894Z,99441.00
2019-04-10T17:50:55.730Z,99449.00
2019-04-10T17:53:01.040Z,99452.00
2019-04-10T17:55:07.472Z,99449.00
2019-04-10T17:57:12.779Z,99461.00
2019-04-10T17:59:18.349Z,99460.00
2019-04-10T18:01:24.996Z,99463.00
2019-04-10T18:03:43.953Z,99466.00
2019-04-10T18:05:37.610Z,99463.00
2019-04-10T18:07:43.939Z,99470.00
2019-04-10T18:09:50.730Z,99476.00
2019-04-10T18:11:59.428Z,99471.00
2019-04-10T18:14:04.046Z,99483.00
2019-04-10T18:16:10.537Z,99479.00
2019-04-10T18:18:15.913Z,99482.00
2019-04-10T18:20:22.066Z,99482.00
2019-04-10T18:22:27.408Z,99491.00
2019-04-10T18:24:32.486Z,99491.00
2019-04-10T18:26:37.448Z,99494.00
2019-04-10T18:28:43.643Z,99497.00
2019-04-10T18:30:49.249Z,99496.00
2019-04-10T18:32:54.407Z,99501.00
2019-04-10T18:35:00.471Z,99508.00
2019-04-10T18:37:08.051Z,99518.00
2019-04-10T18:39:15.728Z,99510.00
2019-04-10T18:41:22.156Z,99512.00
2019-04-10T18:43:28.508Z,99514.00
2019-04-10T18:45:35.391Z,99520.00
2019-04-10T18:47:41.722Z,99526.00
2019-04-10T18:49:47.516Z,99532.00
2019-04-10T18:51:54.169Z,99524.00
2019-04-10T18:53:59.683Z,99532.00
2019-04-10T18:56:05.060Z,99538.00
2019-04-10T18:58:15.816Z,99534.00
2019-04-10T19:00:42.935Z,99534.00
2019-04-10T19:03:05.512Z,99546.00
2019-04-10T19:05:17.319Z,99542.00
2019-04-10T19:07:23.076Z,99544.00
2019-04-10T19:09:32.375Z,99549.00
2019-04-10T19:11:38.403Z,99544.00
2019-04-10T19:13:43.680Z,99547.00
2019-04-10T19:15:50.175Z,99557.00
2019-04-10T19:17:55.598Z,99560.00
2019-04-10T19:20:01.957Z,99562.00
2019-04-10T19:22:08.059Z,99566.00
2019-04-10T19:24:14.331Z,99564.00
2019-04-10T19:26:23.174Z,99564.00
2019-04-10T19:28:35.025Z,99570.00
2019-04-10T19:30:45.558Z,99575.00
2019-04-10T19:32:51.893Z,99572.00
2019-04-10T19:34:57.440Z,99573.00
2019-04-10T19:37:03.941Z,99584.00
2019-04-10T19:39:09.823Z,99580.00
2019-04-10T19:41:26.278Z,99589.00
2019-04-10T19:43:22.103Z,99582.00
2019-04-10T19:45:28.029Z,99586.00
2019-04-10T19:47:32.926Z,99582.00
2019-04-10T19:49:38.809Z,99589.00
2019-04-10T19:51:44.919Z,99604.00
2019-04-10T19:53:51.161Z,99601.00
2019-04-10T19:55:56.537Z,99599.00
2019-04-10T19:58:01.879Z,99589.00
2019-04-10T20:00:08.681Z,99600.00
2019-04-10T20:02:14.911Z,99599.00
2019-04-10T20:04:20.743Z,99609.00
2019-04-10T20:06:25.774Z,99606.00
2019-04-10T20:08:31.896Z,99603.00
2019-04-10T20:10:37.448Z,99602.00
2019-04-10T20:12:42.589Z,99608.00
2019-04-10T20:14:48.510Z,99615.00
2019-04-10T20:16:53.910Z,99600.00
2019-04-10T20:18:59.248Z,99618.00
2019-04-10T20:21:05.783Z,99619.00
2019-04-10T20:23:12.586Z,99614.00
2019-04-10T20:25:18.524Z,99619.00
2019-04-10T20:27:23.868Z,99621.00
2019-04-10T20:29:29.202Z,99610.00
2019-04-10T20:31:35.662Z,99621.00
2019-04-10T20:33:41.018Z,99627.00
2019-04-10T20:35:46.726Z,99624.00
2019-04-10T20:37:51.760Z,99622.00
2019-04-10T20:39:57.846Z,99627.00
2019-04-10T20:42:03.052Z,99638.00
2019-04-10T20:44:09.291Z,99632.00
2019-04-10T20:46:14.384Z,99636.00
2019-04-10T20:48:20.370Z,99641.00
2019-04-10T20:50:26.019Z,99638.00
2019-04-10T20:52:31.122Z,99647.00
2019-04-10T20:54:37.127Z,99643.00
2019-04-10T20:56:43.217Z,99647.00
2019-04-10T20:58:48.538Z,99652.00
2019-04-10T21:00:54.701Z,99657.00
2019-04-10T21:03:00.652Z,99648.00
2019-04-10T21:05:09.563Z,99652.00
2019-04-10T21:07:13.257Z,99665.00
2019-04-10T21:09:19.129Z,99658.00
2019-04-10T21:11:24.762Z,99659.00
2019-04-10T21:13:29.956Z,99659.00
2019-04-10T21:15:35.630Z,99666.00
2019-04-10T21:17:40.725Z,99662.00
2019-04-10T21:19:45.943Z,99661.00
2019-04-10T21:21:51.192Z,99656.00
2019-04-10T21:23:56.539Z,99653.00
2019-04-10T21:26:01.777Z,99653.00
2019-04-10T21:28:06.957Z,99664.00
2019-04-10T21:30:26.662Z,99666.00
2019-04-10T21:32:48.170Z,99660.00
2019-04-10T21:34:53.569Z,99665.00
2019-04-10T21:36:59.754Z,99662.00
2019-04-10T21:39:07.424Z,99664.00
2019-04-10T21:41:13.834Z,99668.00
2019-04-10T21:43:20.302Z,99671.00
2019-04-10T21:45:26.540Z,99675.00
2019-04-10T21:47:31.674Z,99673.00
2019-04-10T21:49:38.023Z,99671.00
2019-04-10T21:51:43.325Z,99686.00
2019-04-10T21:53:49.347Z,99676.00
2019-04-10T21:55:55.737Z,99676.00
2019-04-10T21:58:01.058Z,99676.00
2019-04-10T22:00:07.941Z,99686.00
2019-04-10T22:02:13.362Z,99677.00
2019-04-10T22:04:18.989Z,99688.00
2019-04-10T22:06:43.161Z,99677.00
2019-04-10T22:09:06.134Z,99688.00
2019-04-10T22:11:12.828Z,99687.00
2019-04-10T22:13:18.425Z,99682.00
2019-04-10T22:15:35.068Z,99694.00
2019-04-10T22:17:40.532Z,99692.00
2019-04-10T22:19:45.947Z,99689.00
2019-04-10T22:21:50.843Z,99689.00
2019-04-10T22:23:56.679Z,99699.00
2019-04-10T22:26:02.176Z,99697.00
2019-04-10T22:28:08.120Z,99697.00
2019-04-10T22:30:14.873Z,99704.00
2019-04-10T22:32:20.003Z,99699.00
2019-04-10T22:34:25.569Z,99704.00
2019-04-10T22:36:31.131Z,99705.00
2019-04-10T22:38:36.139Z,99697.00
2019-04-10T22:40:42.025Z,99709.00
2019-04-10T22:42:48.623Z,99710.00
2019-04-10T22:44:53.881Z,99706.00
2019-04-10T22:46:59.140Z,99707.00
2019-04-10T22:49:04.480Z,99709.00
2019-04-10T22:51:10.024Z,99709.00
2019-04-10T22:53:17.272Z,99710.00
2019-04-10T22:55:23.840Z,99703.00
2019-04-10T22:57:29.316Z,99711.00
2019-04-10T22:59:34.868Z,99711.00
2019-04-10T23:01:40.181Z,99717.00
2019-04-10T23:03:46.086Z,99713.00
2019-04-10T23:05:53.107Z,99728.00
2019-04-10T23:07:59.099Z,99719.00
2019-04-10T23:10:04.518Z,99719.00
2019-04-10T23:12:09.911Z,99719.00
2019-04-10T23:14:14.858Z,99721.00
2019-04-10T23:16:19.974Z,99712.00
2019-04-10T23:18:25.564Z,99718.00
2019-04-10T23:20:30.513Z,99708.00
2019-04-10T23:22:35.592Z,99703.00
2019-04-10T23:24:40.420Z,99701.00
2019-04-10T23:26:45.660Z,99716.00
2019-04-10T23:28:51.739Z,99719.00
2019-04-10T23:30:57.254Z,99718.00
2019-04-10T23:33:03.805Z,99714.00
2019-04-10T23:35:10.143Z,99718.00
2019-04-10T23:37:15.159Z,99714.00
2019-04-10T23:39:20.529Z,99710.00
2019-04-10T23:41:25.530Z,99714.00
2019-04-10T23:43:31.470Z,99713.00
2019-04-10T23:45:37.823Z,99700.00
2019-04-10T23:47:44.358Z,99716.00
2019-04-10T23:49:50.002Z,99723.00
2019-04-10T23:51:55.720Z,99728.00
2019-04-10T23:54:00.717Z,99718.00
2019-04-10T23:56:06.270Z,99724.00
2019-04-10T23:58:12.190Z,99732.00
